sensor_id;sensor_type;location;lat;lon;timestamp;pressure;altitude;pressure_sealevel;temperature;humidity
73671;BME280;61968;48.178;11.566;2023-10-31T00:01:27;94305.97;;;9.43;55.27
73671;BME280;61968;48.178;11.566;2023-10-31T00:03:56;94314.97;;;9.53;54.34
73671;BME280;61968;48.178;11.566;2023-10-31T00:06:22;94316.28;;;9.50;54.58
73671;BME280;61968;48.178;11.566;2023-10-31T00:08:49;94314.47;;;9.66;53.73
73671;BME280;61968;48.178;11.566;2023-10-31T00:11:15;94319.63;;;9.35;54.24
73671;BME280;61968;48.178;11.566;2023-10-31T00:13:42;94316.97;;;9.25;54.82
73671;BME280;61968;48.178;11.566;2023-10-31T00:16:08;94321.22;;;9.31;54.61
73671;BME280;61968;48.178;11.566;2023-10-31T00:18:35;94310.59;;;9.16;53.94
73671;BME280;61968;48.178;11.566;2023-10-31T00:21:04;94315.78;;;9.06;54.46
73671;BME280;61968;48.178;11.566;2023-10-31T00:23:30;94316.72;;;9.32;54.33
73671;BME280;61968;48.178;11.566;2023-10-31T00:25:57;94318.56;;;9.31;53.38
73671;BME280;61968;48.178;11.566;2023-10-31T00:28:24;94318.56;;;9.31;53.32
73671;BME280;61968;48.178;11.566;2023-10-31T00:30:51;94324.28;;;9.18;53.14
73671;BME280;61968;48.178;11.566;2023-10-31T00:33:17;94328.25;;;9.20;53.89
73671;BME280;61968;48.178;11.566;2023-10-31T00:35:44;94325.75;;;9.46;53.03
73671;BME280;61968;48.178;11.566;2023-10-31T00:38:12;94326.22;;;9.33;52.41
73671;BME280;61968;48.178;11.566;2023-10-31T00:40:38;94334.19;;;9.00;52.48
73671;BME280;61968;48.178;11.566;2023-10-31T00:43:05;94324.28;;;9.18;52.58
73671;BME280;61968;48.178;11.566;2023-10-31T00:45:31;94322.25;;;9.30;52.90
73671;BME280;61968;48.178;11.566;2023-10-31T00:47:58;94325.84;;;9.14;52.63
73671;BME280;61968;48.178;11.566;2023-10-31T00:50:24;94328.13;;;9.00;53.23
73671;BME280;61968;48.178;11.566;2023-10-31T00:52:51;94321.00;;;8.95;53.01
73671;BME280;61968;48.178;11.566;2023-10-31T00:55:19;94317.66;;;9.10;53.41
73671;BME280;61968;48.178;11.566;2023-10-31T00:57:45;94323.28;;;9.29;52.90
73671;BME280;61968;48.178;11.566;2023-10-31T01:00:13;94329.75;;;9.54;52.20
73671;BME280;61968;48.178;11.566;2023-10-31T01:02:39;94330.56;;;9.59;52.03
73671;BME280;61968;48.178;11.566;2023-10-31T01:05:06;94330.34;;;9.71;51.66
73671;BME280;61968;48.178;11.566;2023-10-31T01:07:33;94334.09;;;9.80;51.10
73671;BME280;61968;48.178;11.566;2023-10-31T01:10:00;94328.16;;;9.58;51.75
73671;BME280;61968;48.178;11.566;2023-10-31T01:12:28;94325.47;;;9.42;51.87
73671;BME280;61968;48.178;11.566;2023-10-31T01:14:56;94327.06;;;9.48;51.91
73671;BME280;61968;48.178;11.566;2023-10-31T01:17:23;94333.72;;;9.56;51.81
73671;BME280;61968;48.178;11.566;2023-10-31T01:19:49;94337.63;;;9.48;51.46
73671;BME280;61968;48.178;11.566;2023-10-31T01:22:16;94341.28;;;9.37;51.92
73671;BME280;61968;48.178;11.566;2023-10-31T01:24:43;94343.44;;;9.51;51.63
73671;BME280;61968;48.178;11.566;2023-10-31T01:27:09;94344.72;;;9.38;52.06
73671;BME280;61968;48.178;11.566;2023-10-31T01:29:37;94340.09;;;9.18;51.98
73671;BME280;61968;48.178;11.566;2023-10-31T01:32:04;94336.97;;;9.21;52.54
73671;BME280;61968;48.178;11.566;2023-10-31T01:34:31;94341.22;;;9.27;52.13
73671;BME280;61968;48.178;11.566;2023-10-31T01:36:57;94336.69;;;9.17;52.61
73671;BME280;61968;48.178;11.566;2023-10-31T01:39:24;94348.53;;;9.10;52.66
73671;BME280;61968;48.178;11.566;2023-10-31T01:41:50;94347.19;;;9.12;52.43
73671;BME280;61968;48.178;11.566;2023-10-31T01:44:19;94349.72;;;8.92;53.50
73671;BME280;61968;48.178;11.566;2023-10-31T01:46:47;94355.31;;;9.06;52.82
73671;BME280;61968;48.178;11.566;2023-10-31T01:49:14;94355.38;;;9.11;52.54
73671;BME280;61968;48.178;11.566;2023-10-31T01:51:41;94352.91;;;8.99;52.69
73671;BME280;61968;48.178;11.566;2023-10-31T01:54:09;94348.00;;;9.13;52.87
73671;BME280;61968;48.178;11.566;2023-10-31T01:56:36;94343.72;;;9.07;52.61
73671;BME280;61968;48.178;11.566;2023-10-31T01:59:04;94348.44;;;8.99;52.91
73671;BME280;61968;48.178;11.566;2023-10-31T02:01:31;94344.22;;;9.03;53.02
73671;BME280;61968;48.178;11.566;2023-10-31T02:03:59;94341.44;;;9.20;52.12
73671;BME280;61968;48.178;11.566;2023-10-31T02:06:27;94342.81;;;9.33;51.51
73671;BME280;61968;48.178;11.566;2023-10-31T02:08:55;94351.13;;;9.52;51.34
73671;BME280;61968;48.178;11.566;2023-10-31T02:11:22;94357.53;;;9.24;51.43
73671;BME280;61968;48.178;11.566;2023-10-31T02:13:48;94364.75;;;8.96;52.22
73671;BME280;61968;48.178;11.566;2023-10-31T02:16:15;94364.63;;;9.13;52.37
73671;BME280;61968;48.178;11.566;2023-10-31T02:18:42;94370.69;;;9.14;52.10
73671;BME280;61968;48.178;11.566;2023-10-31T02:21:10;94375.13;;;9.08;52.54
73671;BME280;61968;48.178;11.566;2023-10-31T02:23:38;94373.88;;;9.16;51.96
73671;BME280;61968;48.178;11.566;2023-10-31T02:26:04;94375.56;;;8.95;52.53
73671;BME280;61968;48.178;11.566;2023-10-31T02:28:31;94382.06;;;8.55;53.05
73671;BME280;61968;48.178;11.566;2023-10-31T02:30:58;94384.53;;;8.67;53.69
73671;BME280;61968;48.178;11.566;2023-10-31T02:33:24;94391.09;;;8.64;53.23
73671;BME280;61968;48.178;11.566;2023-10-31T02:35:51;94397.69;;;8.67;53.55
73671;BME280;61968;48.178;11.566;2023-10-31T02:38:17;94388.94;;;8.61;53.69
73671;BME280;61968;48.178;11.566;2023-10-31T02:40:45;94401.03;;;8.57;53.62
73671;BME280;61968;48.178;11.566;2023-10-31T02:43:12;94392.44;;;8.67;53.83
73671;BME280;61968;48.178;11.566;2023-10-31T02:45:38;94399.81;;;8.65;53.33
73671;BME280;61968;48.178;11.566;2023-10-31T02:48:05;94400.50;;;8.82;52.59
73671;BME280;61968;48.178;11.566;2023-10-31T02:50:32;94389.94;;;8.77;52.67
73671;BME280;61968;48.178;11.566;2023-10-31T02:52:58;94393.69;;;8.86;52.55
73671;BME280;61968;48.178;11.566;2023-10-31T02:55:25;94390.94;;;8.71;53.34
73671;BME280;61968;48.178;11.566;2023-10-31T02:57:53;94384.19;;;8.58;53.24
73671;BME280;61968;48.178;11.566;2023-10-31T03:00:20;94380.13;;;8.72;52.87
73671;BME280;61968;48.178;11.566;2023-10-31T03:02:49;94390.94;;;8.76;52.43
73671;BME280;61968;48.178;11.566;2023-10-31T03:05:16;94380.47;;;8.54;53.32
73671;BME280;61968;48.178;11.566;2023-10-31T03:07:42;94399.34;;;8.46;53.55
73671;BME280;61968;48.178;11.566;2023-10-31T03:10:12;94410.50;;;8.53;53.40
73671;BME280;61968;48.178;11.566;2023-10-31T03:12:39;94412.34;;;8.79;52.94
73671;BME280;61968;48.178;11.566;2023-10-31T03:15:08;94404.19;;;8.54;53.08
73671;BME280;61968;48.178;11.566;2023-10-31T03:17:34;94409.72;;;8.52;52.97
73671;BME280;61968;48.178;11.566;2023-10-31T03:20:01;94423.06;;;8.46;53.84
73671;BME280;61968;48.178;11.566;2023-10-31T03:22:28;94427.84;;;8.49;53.30
73671;BME280;61968;48.178;11.566;2023-10-31T03:24:55;94430.47;;;8.76;52.70
73671;BME280;61968;48.178;11.566;2023-10-31T03:27:21;94428.44;;;8.56;52.60
73671;BME280;61968;48.178;11.566;2023-10-31T03:29:48;94415.75;;;8.26;54.00
73671;BME280;61968;48.178;11.566;2023-10-31T03:32:16;94409.84;;;8.14;54.56
73671;BME280;61968;48.178;11.566;2023-10-31T03:34:43;94408.66;;;8.26;53.91
73671;BME280;61968;48.178;11.566;2023-10-31T03:37:09;94398.41;;;8.30;53.61
73671;BME280;61968;48.178;11.566;2023-10-31T03:39:36;94398.81;;;8.17;53.64
73671;BME280;61968;48.178;11.566;2023-10-31T03:42:03;94400.75;;;8.26;53.60
73671;BME280;61968;48.178;11.566;2023-10-31T03:44:30;94399.75;;;8.32;53.70
73671;BME280;61968;48.178;11.566;2023-10-31T03:46:57;94406.38;;;8.62;52.62
73671;BME280;61968;48.178;11.566;2023-10-31T03:49:24;94402.34;;;8.54;52.26
73671;BME280;61968;48.178;11.566;2023-10-31T03:51:51;94387.63;;;8.58;52.89
73671;BME280;61968;48.178;11.566;2023-10-31T03:54:17;94400.81;;;8.58;52.35
73671;BME280;61968;48.178;11.566;2023-10-31T03:56:44;94400.69;;;8.48;53.02
73671;BME280;61968;48.178;11.566;2023-10-31T03:59:11;94417.19;;;8.66;52.37
73671;BME280;61968;48.178;11.566;2023-10-31T04:01:37;94430.28;;;8.55;52.19
73671;BME280;61968;48.178;11.566;2023-10-31T04:04:05;94438.00;;;8.62;52.03
73671;BME280;61968;48.178;11.566;2023-10-31T04:06:34;94431.31;;;8.82;51.62
73671;BME280;61968;48.178;11.566;2023-10-31T04:09:05;94422.38;;;8.55;52.10
73671;BME280;61968;48.178;11.566;2023-10-31T04:11:32;94422.69;;;8.64;52.04
73671;BME280;61968;48.178;11.566;2023-10-31T04:14:00;94421.50;;;8.72;51.52
73671;BME280;61968;48.178;11.566;2023-10-31T04:16:27;94425.31;;;8.86;51.42
73671;BME280;61968;48.178;11.566;2023-10-31T04:18:55;94416.69;;;8.96;50.97
73671;BME280;61968;48.178;11.566;2023-10-31T04:21:24;94442.28;;;8.68;51.10
73671;BME280;61968;48.178;11.566;2023-10-31T04:23:55;94455.84;;;8.82;51.27
73671;BME280;61968;48.178;11.566;2023-10-31T04:26:25;94460.09;;;8.83;50.83
73671;BME280;61968;48.178;11.566;2023-10-31T04:28:52;94467.22;;;8.88;50.96
73671;BME280;61968;48.178;11.566;2023-10-31T04:31:20;94473.41;;;8.98;49.77
73671;BME280;61968;48.178;11.566;2023-10-31T04:33:47;94471.13;;;8.80;49.57
73671;BME280;61968;48.178;11.566;2023-10-31T04:36:15;94473.00;;;8.85;50.53
73671;BME280;61968;48.178;11.566;2023-10-31T04:38:47;94470.56;;;8.78;50.13
73671;BME280;61968;48.178;11.566;2023-10-31T04:41:16;94461.63;;;8.57;50.12
73671;BME280;61968;48.178;11.566;2023-10-31T04:43:45;94469.44;;;8.69;50.53
73671;BME280;61968;48.178;11.566;2023-10-31T04:46:12;94457.16;;;8.57;50.80
73671;BME280;61968;48.178;11.566;2023-10-31T04:48:40;94457.50;;;8.39;51.08
73671;BME280;61968;48.178;11.566;2023-10-31T04:51:07;94457.22;;;8.63;51.18
73671;BME280;61968;48.178;11.566;2023-10-31T04:53:34;94455.75;;;8.72;50.67
73671;BME280;61968;48.178;11.566;2023-10-31T04:56:01;94466.16;;;8.84;50.39
73671;BME280;61968;48.178;11.566;2023-10-31T04:58:30;94461.72;;;8.89;50.33
73671;BME280;61968;48.178;11.566;2023-10-31T05:00:58;94447.03;;;8.98;49.91
73671;BME280;61968;48.178;11.566;2023-10-31T05:03:28;94455.91;;;8.87;49.52
73671;BME280;61968;48.178;11.566;2023-10-31T05:05:55;94456.75;;;8.93;49.99
73671;BME280;61968;48.178;11.566;2023-10-31T05:08:23;94466.94;;;8.84;50.37
73671;BME280;61968;48.178;11.566;2023-10-31T05:10:50;94468.06;;;8.93;50.26
73671;BME280;61968;48.178;11.566;2023-10-31T05:13:17;94474.06;;;8.84;50.59
73671;BME280;61968;48.178;11.566;2023-10-31T05:15:47;94470.50;;;9.00;50.09
73671;BME280;61968;48.178;11.566;2023-10-31T05:18:14;94477.31;;;8.96;50.13
73671;BME280;61968;48.178;11.566;2023-10-31T05:20:56;94479.63;;;8.87;50.26
73671;BME280;61968;48.178;11.566;2023-10-31T05:23:34;94491.47;;;9.54;53.75
73671;BME280;61968;48.178;11.566;2023-10-31T05:26:05;94495.47;;;9.99;51.67
73671;BME280;61968;48.178;11.566;2023-10-31T05:28:32;94489.81;;;10.28;52.34
73671;BME280;61968;48.178;11.566;2023-10-31T05:31:01;94505.28;;;10.72;50.89
73671;BME280;61968;48.178;11.566;2023-10-31T05:33:28;94504.53;;;10.97;49.48
73671;BME280;61968;48.178;11.566;2023-10-31T05:35:55;94517.50;;;10.93;46.89
73671;BME280;61968;48.178;11.566;2023-10-31T05:38:22;94528.38;;;10.92;47.41
73671;BME280;61968;48.178;11.566;2023-10-31T05:40:49;94518.31;;;10.89;48.65
73671;BME280;61968;48.178;11.566;2023-10-31T05:43:16;94522.03;;;10.98;47.62
73671;BME280;61968;48.178;11.566;2023-10-31T05:45:44;94513.78;;;10.84;48.67
73671;BME280;61968;48.178;11.566;2023-10-31T05:48:12;94521.19;;;10.87;48.28
73671;BME280;61968;48.178;11.566;2023-10-31T05:50:42;94531.03;;;11.07;47.33
73671;BME280;61968;48.178;11.566;2023-10-31T05:53:12;94533.69;;;11.17;47.66
73671;BME280;61968;48.178;11.566;2023-10-31T05:55:42;94536.59;;;11.41;46.37
73671;BME280;61968;48.178;11.566;2023-10-31T05:58:10;94537.94;;;11.44;46.32
73671;BME280;61968;48.178;11.566;2023-10-31T06:00:38;94546.38;;;11.66;45.72
73671;BME280;61968;48.178;11.566;2023-10-31T06:03:15;94548.00;;;11.37;46.46
73671;BME280;61968;48.178;11.566;2023-10-31T06:05:46;94554.09;;;11.52;45.47
73671;BME280;61968;48.178;11.566;2023-10-31T06:08:14;94558.06;;;11.75;45.76
73671;BME280;61968;48.178;11.566;2023-10-31T06:10:44;94553.56;;;11.81;45.32
73671;BME280;61968;48.178;11.566;2023-10-31T06:13:12;94550.63;;;12.03;44.35
73671;BME280;61968;48.178;11.566;2023-10-31T06:15:43;94550.63;;;11.98;44.60
73671;BME280;61968;48.178;11.566;2023-10-31T06:18:12;94546.38;;;12.12;44.30
73671;BME280;61968;48.178;11.566;2023-10-31T06:20:43;94545.56;;;12.12;44.04
73671;BME280;61968;48.178;11.566;2023-10-31T06:23:12;94550.91;;;12.07;43.80
73671;BME280;61968;48.178;11.566;2023-10-31T06:25:40;94557.50;;;12.09;43.75
73671;BME280;61968;48.178;11.566;2023-10-31T06:28:09;94562.53;;;12.06;42.84
73671;BME280;61968;48.178;11.566;2023-10-31T06:30:36;94569.41;;;12.12;43.11
73671;BME280;61968;48.178;11.566;2023-10-31T06:33:12;94571.56;;;11.53;43.46
73671;BME280;61968;48.178;11.566;2023-10-31T06:35:41;94574.72;;;11.25;44.45
73671;BME280;61968;48.178;11.566;2023-10-31T06:38:11;94563.28;;;11.09;44.91
73671;BME280;61968;48.178;11.566;2023-10-31T06:40:46;94569.75;;;10.66;45.85
73671;BME280;61968;48.178;11.566;2023-10-31T06:43:14;94565.25;;;10.66;45.77
73671;BME280;61968;48.178;11.566;2023-10-31T06:45:54;94569.19;;;10.53;46.00
73671;BME280;61968;48.178;11.566;2023-10-31T06:48:24;94574.94;;;10.40;46.68
73671;BME280;61968;48.178;11.566;2023-10-31T06:50:51;94574.88;;;10.25;46.84
73671;BME280;61968;48.178;11.566;2023-10-31T06:53:20;94579.00;;;10.10;47.16
73671;BME280;61968;48.178;11.566;2023-10-31T06:55:53;94579.50;;;10.07;47.88
73671;BME280;61968;48.178;11.566;2023-10-31T06:58:20;94595.13;;;10.67;48.38
73671;BME280;61968;48.178;11.566;2023-10-31T07:00:53;94593.47;;;11.23;48.21
73671;BME280;61968;48.178;11.566;2023-10-31T07:03:25;94607.28;;;11.51;47.29
73671;BME280;61968;48.178;11.566;2023-10-31T07:05:53;94618.44;;;11.79;46.32
73671;BME280;61968;48.178;11.566;2023-10-31T07:08:24;94621.06;;;11.68;46.13
73671;BME280;61968;48.178;11.566;2023-10-31T07:11:13;94616.81;;;11.47;46.16
73671;BME280;61968;48.178;11.566;2023-10-31T07:13:42;94614.44;;;11.61;46.74
73671;BME280;61968;48.178;11.566;2023-10-31T07:16:11;94617.38;;;11.85;46.09
73671;BME280;61968;48.178;11.566;2023-10-31T07:18:49;94620.56;;;12.07;44.96
73671;BME280;61968;48.178;11.566;2023-10-31T07:21:25;94616.84;;;12.03;45.05
73671;BME280;61968;48.178;11.566;2023-10-31T07:23:57;94613.34;;;12.33;44.92
73671;BME280;61968;48.178;11.566;2023-10-31T07:26:25;94611.25;;;12.35;43.89
73671;BME280;61968;48.178;11.566;2023-10-31T07:28:52;94608.63;;;12.05;42.41
73671;BME280;61968;48.178;11.566;2023-10-31T07:31:22;94603.75;;;10.99;44.00
73671;BME280;61968;48.178;11.566;2023-10-31T07:33:54;94601.97;;;11.25;45.97
73671;BME280;61968;48.178;11.566;2023-10-31T07:36:21;94591.94;;;11.63;44.68
73671;BME280;61968;48.178;11.566;2023-10-31T07:38:48;94605.19;;;11.43;43.52
73671;BME280;61968;48.178;11.566;2023-10-31T07:41:20;94603.56;;;11.37;43.42
73671;BME280;61968;48.178;11.566;2023-10-31T07:44:00;94606.22;;;11.37;43.81
73671;BME280;61968;48.178;11.566;2023-10-31T07:46:29;94606.75;;;11.44;45.00
73671;BME280;61968;48.178;11.566;2023-10-31T07:48:58;94608.31;;;11.35;43.65
73671;BME280;61968;48.178;11.566;2023-10-31T07:51:26;94627.41;;;11.52;44.59
73671;BME280;61968;48.178;11.566;2023-10-31T07:53:55;94626.94;;;11.81;44.04
73671;BME280;61968;48.178;11.566;2023-10-31T07:56:25;94627.66;;;11.50;42.60
73671;BME280;61968;48.178;11.566;2023-10-31T07:58:55;94627.13;;;11.38;43.78
73671;BME280;61968;48.178;11.566;2023-10-31T08:01:25;94630.31;;;11.50;43.32
73671;BME280;61968;48.178;11.566;2023-10-31T08:03:52;94612.34;;;11.78;41.25
73671;BME280;61968;48.178;11.566;2023-10-31T08:06:25;94615.25;;;11.61;43.18
73671;BME280;61968;48.178;11.566;2023-10-31T08:08:52;94614.50;;;11.91;41.88
73671;BME280;61968;48.178;11.566;2023-10-31T08:11:19;94609.97;;;12.07;42.39
73671;BME280;61968;48.178;11.566;2023-10-31T08:13:47;94615.28;;;12.07;41.84
73671;BME280;61968;48.178;11.566;2023-10-31T08:16:20;94624.81;;;12.13;41.32
73671;BME280;61968;48.178;11.566;2023-10-31T08:18:50;94625.06;;;11.86;40.65
73671;BME280;61968;48.178;11.566;2023-10-31T08:21:16;94644.41;;;11.82;41.97
73671;BME280;61968;48.178;11.566;2023-10-31T08:23:44;94647.59;;;12.04;41.95
73671;BME280;61968;48.178;11.566;2023-10-31T08:26:11;94665.34;;;12.19;41.24
73671;BME280;61968;48.178;11.566;2023-10-31T08:28:38;94683.06;;;12.03;42.85
73671;BME280;61968;48.178;11.566;2023-10-31T08:31:05;94693.16;;;11.86;42.74
73671;BME280;61968;48.178;11.566;2023-10-31T08:33:31;94697.31;;;11.56;40.02
73671;BME280;61968;48.178;11.566;2023-10-31T08:35:58;94715.94;;;10.61;41.81
73671;BME280;61968;48.178;11.566;2023-10-31T08:38:29;94721.28;;;10.34;42.92
73671;BME280;61968;48.178;11.566;2023-10-31T08:40:58;94728.25;;;10.50;42.37
73671;BME280;61968;48.178;11.566;2023-10-31T08:43:25;94727.50;;;10.55;42.39
73671;BME280;61968;48.178;11.566;2023-10-31T08:46:05;94727.38;;;10.34;42.86
73671;BME280;61968;48.178;11.566;2023-10-31T08:48:37;94722.91;;;10.40;42.47
73671;BME280;61968;48.178;11.566;2023-10-31T08:51:16;94733.16;;;9.99;42.95
73671;BME280;61968;48.178;11.566;2023-10-31T08:53:46;94733.91;;;9.94;43.29
73671;BME280;61968;48.178;11.566;2023-10-31T08:56:15;94738.50;;;10.09;43.42
73671;BME280;61968;48.178;11.566;2023-10-31T08:58:44;94744.97;;;9.91;43.59
73671;BME280;61968;48.178;11.566;2023-10-31T09:01:11;94745.97;;;9.85;43.77
73671;BME280;61968;48.178;11.566;2023-10-31T09:03:41;94744.13;;;9.64;44.21
73671;BME280;61968;48.178;11.566;2023-10-31T09:06:08;94748.91;;;9.67;44.35
73671;BME280;61968;48.178;11.566;2023-10-31T09:08:43;94754.19;;;9.67;44.35
73671;BME280;61968;48.178;11.566;2023-10-31T09:11:23;94755.16;;;9.61;44.67
73671;BME280;61968;48.178;11.566;2023-10-31T09:13:51;94756.00;;;9.61;43.92
73671;BME280;61968;48.178;11.566;2023-10-31T09:16:27;94753.34;;;9.61;44.07
73671;BME280;61968;48.178;11.566;2023-10-31T09:19:00;94752.50;;;9.56;44.60
73671;BME280;61968;48.178;11.566;2023-10-31T09:24:20;94759.13;;;9.36;44.99
73671;BME280;61968;48.178;11.566;2023-10-31T09:26:49;94756.75;;;9.35;44.94
73671;BME280;61968;48.178;11.566;2023-10-31T09:29:17;94760.06;;;9.25;44.79
73671;BME280;61968;48.178;11.566;2023-10-31T09:31:53;94764.16;;;9.16;45.18
73671;BME280;61968;48.178;11.566;2023-10-31T09:34:28;94765.56;;;9.23;45.03
73671;BME280;61968;48.178;11.566;2023-10-31T09:36:58;94776.06;;;9.40;45.03
73671;BME280;61968;48.178;11.566;2023-10-31T09:39:31;94765.75;;;9.17;44.79
73671;BME280;61968;48.178;11.566;2023-10-31T09:42:05;94773.25;;;9.47;44.81
73671;BME280;61968;48.178;11.566;2023-10-31T09:44:48;94778.63;;;9.57;44.34
73671;BME280;61968;48.178;11.566;2023-10-31T09:47:23;94782.81;;;9.53;44.55
73671;BME280;61968;48.178;11.566;2023-10-31T09:49:52;94791.25;;;9.33;44.66
73671;BME280;61968;48.178;11.566;2023-10-31T09:52:19;94788.22;;;9.41;44.80
73671;BME280;61968;48.178;11.566;2023-10-31T09:54:49;94777.88;;;9.18;45.23
73671;BME280;61968;48.178;11.566;2023-10-31T09:57:21;94778.19;;;9.21;44.66
73671;BME280;61968;48.178;11.566;2023-10-31T09:59:48;94770.53;;;9.20;44.98
73671;BME280;61968;48.178;11.566;2023-10-31T10:02:18;94767.81;;;9.15;45.27
73671;BME280;61968;48.178;11.566;2023-10-31T10:04:48;94770.16;;;9.33;45.21
73671;BME280;61968;48.178;11.566;2023-10-31T10:07:16;94776.84;;;9.41;44.84
73671;BME280;61968;48.178;11.566;2023-10-31T10:09:50;94788.50;;;9.45;44.58
73671;BME280;61968;48.178;11.566;2023-10-31T10:12:17;94798.84;;;9.46;44.66
73671;BME280;61968;48.178;11.566;2023-10-31T10:14:48;94803.72;;;9.60;44.76
73671;BME280;61968;48.178;11.566;2023-10-31T10:17:19;94813.06;;;9.67;44.20
73671;BME280;61968;48.178;11.566;2023-10-31T10:19:47;94821.34;;;9.54;44.57
73671;BME280;61968;48.178;11.566;2023-10-31T10:22:16;94816.13;;;9.59;44.26
73671;BME280;61968;48.178;11.566;2023-10-31T10:24:47;94821.28;;;9.49;44.47
73671;BME280;61968;48.178;11.566;2023-10-31T10:27:13;94816.81;;;9.49;44.17
73671;BME280;61968;48.178;11.566;2023-10-31T10:29:40;94821.13;;;9.17;45.41
73671;BME280;61968;48.178;11.566;2023-10-31T10:32:09;94820.34;;;9.38;45.05
73671;BME280;61968;48.178;11.566;2023-10-31T10:34:37;94823.94;;;9.49;44.31
73671;BME280;61968;48.178;11.566;2023-10-31T10:37:05;94824.16;;;9.47;44.17
73671;BME280;61968;48.178;11.566;2023-10-31T10:39:35;94821.91;;;9.56;44.08
73671;BME280;61968;48.178;11.566;2023-10-31T10:42:09;94816.72;;;9.66;44.52
73671;BME280;61968;48.178;11.566;2023-10-31T10:44:38;94813.78;;;9.85;43.82
73671;BME280;61968;48.178;11.566;2023-10-31T10:47:12;94824.28;;;9.58;44.00
73671;BME280;61968;48.178;11.566;2023-10-31T10:49:45;94829.03;;;9.78;44.07
73671;BME280;61968;48.178;11.566;2023-10-31T10:52:17;94824.44;;;9.73;43.92
73671;BME280;61968;48.178;11.566;2023-10-31T10:54:53;94816.50;;;9.90;43.88
73671;BME280;61968;48.178;11.566;2023-10-31T10:57:37;94820.34;;;9.82;43.54
73671;BME280;61968;48.178;11.566;2023-10-31T11:00:06;94811.13;;;9.80;43.74
73671;BME280;61968;48.178;11.566;2023-10-31T11:02:39;94812.22;;;9.84;43.83
73671;BME280;61968;48.178;11.566;2023-10-31T11:05:12;94812.78;;;10.13;42.88
73671;BME280;61968;48.178;11.566;2023-10-31T11:07:40;94818.56;;;10.10;42.95
73671;BME280;61968;48.178;11.566;2023-10-31T11:10:10;94820.28;;;9.99;43.20
73671;BME280;61968;48.178;11.566;2023-10-31T11:12:38;94822.72;;;10.06;43.01
73671;BME280;61968;48.178;11.566;2023-10-31T11:15:09;94810.56;;;10.05;42.91
73671;BME280;61968;48.178;11.566;2023-10-31T11:17:40;94815.38;;;10.08;43.07
73671;BME280;61968;48.178;11.566;2023-10-31T11:20:10;94814.06;;;9.61;43.24
73671;BME280;61968;48.178;11.566;2023-10-31T11:22:41;94806.63;;;9.80;43.29
73671;BME280;61968;48.178;11.566;2023-10-31T11:25:10;94814.66;;;9.90;43.04
73671;BME280;61968;48.178;11.566;2023-10-31T11:27:41;94819.41;;;9.88;43.28
73671;BME280;61968;48.178;11.566;2023-10-31T11:30:21;94817.22;;;9.41;43.78
73671;BME280;61968;48.178;11.566;2023-10-31T11:32:53;94813.16;;;9.34;43.58
73671;BME280;61968;48.178;11.566;2023-10-31T11:35:22;94806.25;;;9.49;43.37
73671;BME280;61968;48.178;11.566;2023-10-31T11:38:01;94803.72;;;9.60;42.83
73671;BME280;61968;48.178;11.566;2023-10-31T11:40:28;94815.56;;;9.57;43.20
73671;BME280;61968;48.178;11.566;2023-10-31T11:42:57;94803.66;;;9.55;42.73
73671;BME280;61968;48.178;11.566;2023-10-31T11:45:30;94807.59;;;9.30;43.52
73671;BME280;61968;48.178;11.566;2023-10-31T11:47:59;94793.22;;;9.21;43.72
73671;BME280;61968;48.178;11.566;2023-10-31T11:50:28;94806.22;;;9.06;44.13
73671;BME280;61968;48.178;11.566;2023-10-31T11:53:04;94793.72;;;9.18;44.01
73671;BME280;61968;48.178;11.566;2023-10-31T11:55:35;94798.28;;;9.44;43.23
73671;BME280;61968;48.178;11.566;2023-10-31T11:58:14;94796.47;;;9.72;43.07
73671;BME280;61968;48.178;11.566;2023-10-31T12:00:44;94798.78;;;9.85;42.73
73671;BME280;61968;48.178;11.566;2023-10-31T12:03:14;94794.63;;;9.72;42.73
73671;BME280;61968;48.178;11.566;2023-10-31T12:05:51;94786.22;;;9.98;42.59
73671;BME280;61968;48.178;11.566;2023-10-31T12:08:24;94784.22;;;10.10;42.21
73671;BME280;61968;48.178;11.566;2023-10-31T12:10:51;94788.00;;;9.92;42.17
73671;BME280;61968;48.178;11.566;2023-10-31T12:13:17;94793.00;;;9.88;42.28
73671;BME280;61968;48.178;11.566;2023-10-31T12:15:51;94789.72;;;9.81;42.83
73671;BME280;61968;48.178;11.566;2023-10-31T12:18:19;94786.88;;;10.15;42.39
73671;BME280;61968;48.178;11.566;2023-10-31T12:20:50;94785.31;;;9.87;42.70
73671;BME280;61968;48.178;11.566;2023-10-31T12:23:18;94781.88;;;9.86;42.46
73671;BME280;61968;48.178;11.566;2023-10-31T12:25:48;94778.81;;;10.00;42.67
73671;BME280;61968;48.178;11.566;2023-10-31T12:28:18;94784.50;;;9.86;42.64
73671;BME280;61968;48.178;11.566;2023-10-31T12:30:45;94787.03;;;9.76;43.41
73671;BME280;61968;48.178;11.566;2023-10-31T12:33:13;94784.50;;;9.86;42.99
73671;BME280;61968;48.178;11.566;2023-10-31T12:35:41;94790.09;;;9.90;42.66
73671;BME280;61968;48.178;11.566;2023-10-31T12:38:10;94784.53;;;10.18;41.97
73671;BME280;61968;48.178;11.566;2023-10-31T12:40:38;94790.38;;;10.21;42.37
73671;BME280;61968;48.178;11.566;2023-10-31T12:43:11;94794.78;;;10.10;42.01
73671;BME280;61968;48.178;11.566;2023-10-31T12:45:38;94793.38;;;10.02;42.30
73671;BME280;61968;48.178;11.566;2023-10-31T12:48:08;94795.09;;;9.64;42.88
73671;BME280;61968;48.178;11.566;2023-10-31T12:50:36;94802.63;;;9.78;42.80
73671;BME280;61968;48.178;11.566;2023-10-31T12:53:06;94797.66;;;10.08;42.14
73671;BME280;61968;48.178;11.566;2023-10-31T12:55:38;94800.16;;;9.93;42.21
73671;BME280;61968;48.178;11.566;2023-10-31T12:58:06;94800.69;;;9.73;42.69
73671;BME280;61968;48.178;11.566;2023-10-31T13:00:40;94808.72;;;9.78;43.23
73671;BME280;61968;48.178;11.566;2023-10-31T13:03:08;94809.75;;;9.55;43.63
73671;BME280;61968;48.178;11.566;2023-10-31T13:05:36;94818.22;;;9.57;43.84
73671;BME280;61968;48.178;11.566;2023-10-31T13:08:13;94819.47;;;9.11;45.31
73671;BME280;61968;48.178;11.566;2023-10-31T13:10:41;94814.75;;;9.13;45.62